Time;durP1;ratioP1;P1;durP2;ratioP2;P2;SDS_P1;SDS_P2;PMS_P1;PMS_P2;Temp;Humidity;BMP_temperature;BMP_pressure;BME280_temperature;BME280_humidity;BME280_pressure;Samples;Min_cycle;Max_cycle;Signal;HPM_P1;HPM_P2
2023/06/07 00:00:56;;;;;;;6.80;6.10;;;17.30;99.90;;;;;;6324630;28;20468;-64
2023/06/07 00:04:00;;;;;;;6.10;5.60;;;17.40;99.90;;;;;;6324682;28;20468;-63
2023/06/07 00:07:03;;;;;;;6.83;6.20;;;17.30;99.90;;;;;;6324771;28;20483;-63
2023/06/07 00:10:09;;;;;;;6.43;5.83;;;17.30;99.90;;;;;;6324775;28;20484;-63
2023/06/07 00:13:12;;;;;;;7.73;7.03;;;17.40;99.90;;;;;;6324670;28;20468;-64
2023/06/07 00:16:15;;;;;;;6.73;5.83;;;17.40;99.90;;;;;;6324507;28;20975;-63
2023/06/07 00:19:21;;;;;;;6.00;5.50;;;17.50;99.90;;;;;;6324745;28;20464;-63
2023/06/07 00:22:25;;;;;;;7.60;6.87;;;17.50;99.90;;;;;;6324801;28;20479;-64
2023/06/07 00:25:30;;;;;;;8.00;6.60;;;17.50;99.90;;;;;;6324455;28;20556;-64
2023/06/07 00:28:33;;;;;;;7.47;6.73;;;17.50;99.90;;;;;;6323996;28;20879;-64
2023/06/07 00:31:36;;;;;;;7.20;6.60;;;17.50;99.90;;;;;;6324211;28;20480;-64
2023/06/07 00:34:39;;;;;;;6.43;5.83;;;17.50;99.90;;;;;;6325577;28;20982;-64
2023/06/07 00:37:43;;;;;;;5.33;4.83;;;17.50;99.90;;;;;;6329247;28;20521;-64
2023/06/07 00:40:47;;;;;;;5.77;5.27;;;17.40;99.90;;;;;;6329003;28;21003;-64
2023/06/07 00:43:50;;;;;;;6.13;4.47;;;17.50;99.90;;;;;;6328886;28;20476;-64
2023/06/07 00:46:54;;;;;;;5.03;4.67;;;17.40;99.90;;;;;;6329019;28;20486;-64
2023/06/07 00:49:57;;;;;;;5.50;5.00;;;17.40;99.90;;;;;;6328493;28;20467;-64
2023/06/07 00:53:01;;;;;;;6.07;5.50;;;17.30;99.90;;;;;;6328765;28;20487;-64
2023/06/07 00:56:07;;;;;;;5.93;4.97;;;17.30;99.90;;;;;;6328419;28;20468;-64
2023/06/07 00:59:10;;;;;;;5.90;5.40;;;17.30;99.90;;;;;;6328674;28;20463;-64
2023/06/07 01:02:14;;;;;;;5.67;5.17;;;17.30;99.90;;;;;;6328395;28;20946;-64
2023/06/07 01:05:20;;;;;;;5.50;5.10;;;17.30;99.90;;;;;;6328534;28;20525;-64
2023/06/07 01:08:23;;;;;;;5.67;5.17;;;17.30;99.90;;;;;;6328415;28;20561;-64
2023/06/07 01:11:28;;;;;;;7.20;6.60;;;17.30;99.90;;;;;;6328200;28;20579;-64
2023/06/07 01:14:32;;;;;;;8.53;7.73;;;17.30;99.90;;;;;;6328027;28;20476;-64
2023/06/07 01:17:42;;;;;;;9.00;8.10;;;17.30;99.90;;;;;;6327969;28;20589;-64
2023/06/07 01:20:54;;;;;;;8.33;7.53;;;17.40;99.90;;;;;;6328122;28;20491;-64
2023/06/07 01:23:59;;;;;;;7.10;6.53;;;17.30;99.90;;;;;;6328266;28;20735;-64
2023/06/07 01:27:03;;;;;;;7.47;6.73;;;17.40;99.90;;;;;;6328695;28;20444;-64
2023/06/07 01:30:11;;;;;;;8.03;7.33;;;17.30;99.90;;;;;;6327893;28;20463;-64
2023/06/07 01:33:17;;;;;;;7.57;6.77;;;17.30;99.90;;;;;;6328079;28;20456;-64
2023/06/07 01:36:20;;;;;;;8.07;7.27;;;17.30;99.90;;;;;;6327725;28;20471;-64
2023/06/07 01:39:26;;;;;;;7.97;7.17;;;17.20;99.90;;;;;;6327550;28;20476;-64
2023/06/07 01:42:30;;;;;;;8.73;7.93;;;17.20;99.90;;;;;;6327464;28;20471;-64
2023/06/07 01:45:34;;;;;;;8.30;7.10;;;17.20;99.90;;;;;;6326987;28;20464;-64
2023/06/07 01:48:37;;;;;;;9.20;7.80;;;17.30;99.90;;;;;;6327169;28;20871;-64
2023/06/07 01:51:40;;;;;;;8.17;7.47;;;17.30;99.90;;;;;;6327155;28;20528;-64
2023/06/07 01:54:45;;;;;;;8.20;7.47;;;17.30;99.90;;;;;;6326847;28;20480;-64
2023/06/07 01:57:56;;;;;;;9.43;8.33;;;17.30;99.90;;;;;;6327194;28;20460;-64
2023/06/07 02:01:08;;;;;;;10.27;8.37;;;17.40;99.90;;;;;;6321855;28;20472;-64
2023/06/07 02:04:14;;;;;;;8.20;7.50;;;17.30;99.90;;;;;;6327399;28;20591;-64
2023/06/07 02:07:23;;;;;;;7.90;7.20;;;17.40;99.90;;;;;;6327511;28;20476;-64
2023/06/07 02:10:29;;;;;;;9.07;8.17;;;17.40;99.90;;;;;;6327276;28;20597;-64
2023/06/07 02:13:35;;;;;;;8.50;7.80;;;17.40;99.90;;;;;;6326762;28;20486;-64
2023/06/07 02:16:40;;;;;;;7.90;7.20;;;17.50;99.90;;;;;;6327048;28;20851;-64
2023/06/07 02:19:44;;;;;;;9.90;9.03;;;17.40;99.90;;;;;;6327483;28;20584;-63
2023/06/07 02:22:47;;;;;;;9.30;8.30;;;17.40;99.90;;;;;;6326688;28;20476;-64
2023/06/07 02:25:52;;;;;;;8.30;7.50;;;17.40;99.90;;;;;;6326489;28;20472;-64
2023/06/07 02:28:55;;;;;;;8.70;7.93;;;17.50;99.90;;;;;;6326458;28;20486;-64
2023/06/07 02:32:00;;;;;;;8.13;7.43;;;17.40;99.90;;;;;;6326448;28;20464;-64
2023/06/07 02:35:04;;;;;;;8.30;7.60;;;17.50;99.90;;;;;;6326264;28;20525;-64
2023/06/07 02:38:08;;;;;;;8.40;7.70;;;17.50;99.90;;;;;;6326621;28;20538;-64
2023/06/07 02:41:13;;;;;;;8.10;7.30;;;17.40;99.90;;;;;;6326033;28;20480;-64
2023/06/07 02:44:16;;;;;;;8.00;7.33;;;17.50;99.90;;;;;;6326109;28;20821;-64
2023/06/07 02:47:19;;;;;;;8.10;7.50;;;17.40;99.90;;;;;;6325933;28;20490;-64
2023/06/07 02:50:22;;;;;;;8.10;7.50;;;17.50;99.90;;;;;;6325823;28;20483;-64
2023/06/07 02:53:27;;;;;;;8.87;8.07;;;17.50;99.90;;;;;;6325711;28;20499;-64
2023/06/07 02:56:32;;;;;;;9.67;8.70;;;17.40;99.90;;;;;;6325396;28;20850;-64
2023/06/07 02:59:35;;;;;;;9.20;8.37;;;17.40;99.90;;;;;;6325287;28;20468;-64
2023/06/07 03:02:38;;;;;;;8.60;7.57;;;17.40;99.90;;;;;;6325536;28;20880;-64
2023/06/07 03:05:44;;;;;;;8.77;7.97;;;17.40;99.90;;;;;;6315923;28;20479;-64
2023/06/07 03:08:47;;;;;;;11.13;9.27;;;17.50;99.90;;;;;;6325334;28;20964;-64
2023/06/07 03:11:52;;;;;;;9.50;8.70;;;17.50;99.90;;;;;;6324991;28;20494;-64
2023/06/07 03:14:55;;;;;;;9.87;9.07;;;17.40;99.90;;;;;;6325354;28;21036;-64
2023/06/07 03:17:59;;;;;;;9.00;8.10;;;17.40;99.90;;;;;;6350476;27;20930;-64
2023/06/07 03:21:02;;;;;;;8.80;7.90;;;17.40;99.90;;;;;;6350681;28;20520;-64
2023/06/07 03:24:06;;;;;;;8.73;7.97;;;17.40;99.90;;;;;;6350354;28;20527;-64
2023/06/07 03:27:11;;;;;;;8.70;7.93;;;17.50;99.90;;;;;;6349911;28;20452;-64
2023/06/07 03:30:14;;;;;;;10.60;9.60;;;17.40;99.90;;;;;;6350058;28;20934;-64
2023/06/07 03:33:17;;;;;;;9.60;8.80;;;17.40;99.90;;;;;;6349713;28;20461;-63
2023/06/07 03:36:24;;;;;;;9.33;8.33;;;17.40;99.90;;;;;;6350287;28;20486;-64
2023/06/07 03:39:27;;;;;;;10.40;8.93;;;17.40;99.90;;;;;;6349841;28;20476;-64
2023/06/07 03:42:32;;;;;;;9.60;8.80;;;17.40;99.90;;;;;;6350025;28;20482;-64
2023/06/07 03:45:35;;;;;;;9.83;8.93;;;17.40;99.90;;;;;;6349665;28;20801;-64
2023/06/07 03:48:38;;;;;;;9.83;8.83;;;17.40;99.90;;;;;;6349717;28;20538;-64
2023/06/07 03:51:43;;;;;;;9.27;8.47;;;17.40;99.90;;;;;;6350253;28;20814;-63
2023/06/07 03:54:46;;;;;;;9.87;8.40;;;17.40;99.90;;;;;;6350272;28;20472;-64
2023/06/07 03:57:51;;;;;;;10.40;9.50;;;17.40;99.90;;;;;;6349332;28;20816;-63
2023/06/07 04:00:55;;;;;;;10.20;8.73;;;17.40;99.90;;;;;;6350185;28;20468;-63
2023/06/07 04:03:58;;;;;;;11.23;8.70;;;17.50;99.90;;;;;;6349665;28;20482;-63
2023/06/07 04:07:02;;;;;;;8.83;8.03;;;17.50;99.90;;;;;;6344889;28;20543;-63
2023/06/07 04:10:06;;;;;;;8.93;8.03;;;17.50;99.90;;;;;;6349188;28;20476;-63
2023/06/07 04:13:11;;;;;;;9.53;8.63;;;17.50;99.90;;;;;;6349516;28;20487;-63
2023/06/07 04:16:14;;;;;;;9.90;9.00;;;17.50;99.90;;;;;;6349473;28;20466;-63
2023/06/07 04:19:18;;;;;;;9.73;8.83;;;17.60;99.90;;;;;;6349041;28;21012;-63
2023/06/07 04:22:24;;;;;;;10.20;9.20;;;17.50;99.90;;;;;;6348955;28;20529;-63
2023/06/07 04:25:33;;;;;;;9.43;8.47;;;17.60;99.90;;;;;;6348851;28;20463;-63
2023/06/07 04:28:41;;;;;;;10.10;9.10;;;17.50;99.90;;;;;;6349443;28;20516;-63
2023/06/07 04:31:44;;;;;;;10.27;9.30;;;17.60;99.90;;;;;;6348877;28;20467;-63
2023/06/07 04:34:48;;;;;;;9.60;8.53;;;17.50;99.90;;;;;;6348878;28;20812;-63
2023/06/07 04:37:52;;;;;;;9.97;8.97;;;17.50;99.90;;;;;;6349093;28;20456;-63
2023/06/07 04:40:55;;;;;;;11.30;10.30;;;17.60;99.90;;;;;;6349579;28;20562;-63
2023/06/07 04:44:01;;;;;;;9.80;8.80;;;17.60;99.90;;;;;;6349353;28;20490;-63
2023/06/07 04:47:05;;;;;;;8.77;7.97;;;17.60;99.90;;;;;;6349345;28;20474;-63
2023/06/07 04:50:16;;;;;;;9.77;8.80;;;17.70;99.90;;;;;;6349148;28;20567;-63
2023/06/07 04:53:20;;;;;;;9.43;8.63;;;17.70;99.90;;;;;;6349075;28;20475;-63
2023/06/07 04:56:23;;;;;;;10.33;9.43;;;17.80;99.90;;;;;;6348951;28;20467;-63
2023/06/07 04:59:34;;;;;;;10.50;9.33;;;18.00;99.90;;;;;;6348648;28;20571;-63
2023/06/07 05:02:41;;;;;;;10.67;8.93;;;18.10;99.90;;;;;;6348659;28;20236;-63
2023/06/07 05:05:46;;;;;;;9.53;8.63;;;18.20;99.90;;;;;;6348806;28;20244;-65
2023/06/07 05:08:50;;;;;;;9.97;9.07;;;18.30;99.90;;;;;;6348965;28;20233;-65
2023/06/07 05:11:53;;;;;;;9.37;8.57;;;18.40;99.90;;;;;;6349013;28;20474;-65
2023/06/07 05:14:57;;;;;;;9.93;9.07;;;18.50;99.90;;;;;;6339257;28;20229;-64
2023/06/07 05:18:02;;;;;;;10.53;9.53;;;18.60;99.90;;;;;;6347576;28;20229;-65
2023/06/07 05:21:05;;;;;;;11.03;10.10;;;18.80;99.90;;;;;;6349349;28;20232;-64
2023/06/07 05:24:08;;;;;;;10.33;9.33;;;18.80;99.90;;;;;;6353242;27;20209;-64
2023/06/07 05:27:12;;;;;;;10.67;9.77;;;18.70;99.90;;;;;;6353304;28;20350;-64
2023/06/07 05:30:17;;;;;;;9.00;8.20;;;18.70;99.90;;;;;;6353265;28;20227;-64
2023/06/07 05:33:21;;;;;;;9.20;8.40;;;18.80;99.90;;;;;;6353336;28;20308;-63
2023/06/07 05:36:24;;;;;;;8.97;8.07;;;19.00;99.90;;;;;;6352762;28;20222;-63
2023/06/07 05:39:27;;;;;;;10.10;9.17;;;19.10;99.90;;;;;;6352872;28;20630;-63
2023/06/07 05:42:30;;;;;;;10.03;9.13;;;19.20;99.90;;;;;;6352676;28;20234;-63
2023/06/07 05:45:35;;;;;;;12.43;10.47;;;19.30;99.90;;;;;;6352519;28;20680;-63
2023/06/07 05:48:38;;;;;;;8.90;8.10;;;19.40;99.90;;;;;;6352829;28;20222;-63
2023/06/07 05:51:41;;;;;;;10.63;9.77;;;19.60;99.90;;;;;;6352649;28;20228;-63
2023/06/07 05:54:50;;;;;;;11.00;10.10;;;19.70;99.90;;;;;;6352353;28;20552;-64
2023/06/07 05:57:53;;;;;;;10.27;9.37;;;19.80;99.90;;;;;;6352546;28;20222;-64
2023/06/07 06:00:58;;;;;;;149.87;101.47;;;20.00;99.90;;;;;;6352175;28;20229;-63
2023/06/07 06:04:01;;;;;;;11.80;10.60;;;20.10;99.90;;;;;;6352149;28;20286;-62
2023/06/07 06:07:05;;;;;;;17.27;15.17;;;20.10;99.90;;;;;;6351937;28;20701;-60
2023/06/07 06:10:09;;;;;;;88.90;55.10;;;20.10;99.90;;;;;;6342394;28;20226;-60
2023/06/07 06:13:13;;;;;;;35.50;25.20;;;20.20;99.90;;;;;;6310124;28;20219;-61
2023/06/07 06:16:17;;;;;;;34.40;26.23;;;20.30;99.90;;;;;;6314350;28;20253;-61
2023/06/07 06:19:20;;;;;;;19.13;16.43;;;20.30;99.90;;;;;;6301378;28;20313;-60
2023/06/07 06:22:26;;;;;;;10.67;9.60;;;20.30;99.90;;;;;;6317075;28;20240;-60
2023/06/07 06:25:29;;;;;;;11.10;10.00;;;20.30;99.90;;;;;;6326776;28;20223;-61
2023/06/07 06:28:35;;;;;;;10.37;9.40;;;20.40;99.90;;;;;;6325886;28;20226;-60
2023/06/07 06:31:40;;;;;;;9.63;8.60;;;20.50;99.90;;;;;;6325719;28;20677;-60
2023/06/07 06:34:45;;;;;;;9.80;8.90;;;20.50;99.90;;;;;;6325570;28;20226;-60
2023/06/07 06:37:48;;;;;;;10.50;9.23;;;20.60;99.90;;;;;;6325772;28;20225;-60
2023/06/07 06:40:51;;;;;;;9.37;8.60;;;20.80;99.90;;;;;;6325510;28;20226;-63
2023/06/07 06:43:54;;;;;;;9.70;8.90;;;20.80;99.90;;;;;;6325448;28;20230;-59
2023/06/07 06:47:00;;;;;;;12.03;9.30;;;20.90;99.90;;;;;;6325181;28;20228;-59
2023/06/07 06:50:03;;;;;;;10.43;9.57;;;21.30;99.90;;;;;;6324977;28;20238;-59
2023/06/07 06:53:20;;;;;;;9.10;8.37;;;21.70;99.90;;;;;;6324371;28;20218;-59
2023/06/07 06:56:24;;;;;;;10.90;9.90;;;22.30;99.90;;;;;;6324935;28;20233;-59
2023/06/07 06:59:27;;;;;;;10.00;9.30;;;22.70;99.90;;;;;;6324610;28;20226;-59
2023/06/07 07:02:31;;;;;;;10.57;9.47;;;23.00;99.90;;;;;;6327294;28;20222;-59
2023/06/07 07:05:35;;;;;;;11.03;10.13;;;23.10;99.90;;;;;;6331317;28;20698;-59
2023/06/07 07:08:39;;;;;;;11.30;10.40;;;23.00;99.90;;;;;;6324696;28;20290;-59
2023/06/07 07:11:42;;;;;;;10.27;9.30;;;22.90;99.90;;;;;;6322129;28;20586;-59
2023/06/07 07:14:45;;;;;;;10.07;9.17;;;22.80;99.90;;;;;;6307259;28;20226;-59
2023/06/07 07:17:51;;;;;;;11.80;9.13;;;22.80;99.90;;;;;;6300827;28;20309;-59
2023/06/07 07:20:54;;;;;;;10.27;9.23;;;23.00;99.90;;;;;;6300509;28;20589;-60
2023/06/07 07:23:57;;;;;;;10.87;9.87;;;23.00;99.90;;;;;;6313410;28;20356;-60
2023/06/07 07:27:01;;;;;;;10.43;9.47;;;23.00;99.90;;;;;;6349400;28;20317;-60
2023/06/07 07:30:05;;;;;;;11.00;9.33;;;23.00;99.90;;;;;;6353078;27;20239;-60
2023/06/07 07:33:13;;;;;;;10.70;9.70;;;23.10;99.90;;;;;;6364283;27;20198;-60
2023/06/07 07:36:21;;;;;;;10.20;9.20;;;23.20;99.90;;;;;;6322710;28;20244;-60
2023/06/07 07:39:26;;;;;;;9.83;9.00;;;23.20;99.90;;;;;;6324318;28;20645;-60
2023/06/07 07:42:29;;;;;;;9.00;8.20;;;23.30;99.90;;;;;;6323789;28;20222;-60
2023/06/07 07:45:32;;;;;;;12.13;11.10;;;23.40;99.90;;;;;;6323568;28;20225;-60
2023/06/07 07:48:36;;;;;;;10.50;9.70;;;23.40;99.90;;;;;;6319289;28;20677;-59
2023/06/07 07:51:40;;;;;;;12.00;10.70;;;23.40;99.90;;;;;;6304487;28;20226;-60
2023/06/07 07:54:43;;;;;;;12.63;11.33;;;23.30;99.90;;;;;;6301492;28;20322;-60
2023/06/07 07:57:46;;;;;;;12.30;11.27;;;23.10;99.90;;;;;;6304930;28;20344;-61
2023/06/07 08:00:50;;;;;;;12.90;11.70;;;23.00;99.90;;;;;;6312025;28;20222;-61
2023/06/07 08:03:55;;;;;;;11.90;10.70;;;22.90;99.90;;;;;;6315372;28;20736;-60
2023/06/07 08:07:00;;;;;;;13.57;11.93;;;22.80;99.90;;;;;;6305865;28;20214;-61
2023/06/07 08:10:04;;;;;;;13.03;11.87;;;22.80;99.90;;;;;;6324821;28;20282;-60
2023/06/07 08:13:08;;;;;;;12.87;11.77;;;22.60;99.90;;;;;;6310627;28;20238;-60
2023/06/07 08:16:12;;;;;;;12.80;11.50;;;22.60;99.90;;;;;;6319110;28;20226;-61
2023/06/07 08:19:16;;;;;;;14.03;12.67;;;22.50;99.90;;;;;;6323841;28;20237;-60
2023/06/07 08:22:20;;;;;;;11.53;10.50;;;22.50;99.90;;;;;;6309298;28;20237;-60
2023/06/07 08:25:23;;;;;;;11.90;10.70;;;22.50;99.90;;;;;;6293788;28;20223;-60
2023/06/07 08:28:26;;;;;;;12.23;11.20;;;22.50;99.90;;;;;;6307060;28;20321;-60
2023/06/07 08:31:31;;;;;;;12.70;11.40;;;22.60;99.90;;;;;;6306428;28;20227;-60
2023/06/07 08:34:39;;;;;;;12.13;10.93;;;22.50;99.90;;;;;;6310402;28;20222;-60
2023/06/07 08:37:42;;;;;;;13.03;11.80;;;22.60;99.90;;;;;;6306373;28;20219;-60
2023/06/07 08:40:46;;;;;;;10.33;9.43;;;22.70;99.90;;;;;;6315743;28;20668;-60
2023/06/07 08:43:49;;;;;;;14.57;11.90;;;22.90;99.90;;;;;;6318600;28;20241;-60
2023/06/07 08:46:53;;;;;;;11.53;10.43;;;23.00;99.90;;;;;;6307651;28;20243;-60
2023/06/07 08:49:58;;;;;;;12.60;11.27;;;23.20;99.90;;;;;;6309757;28;20276;-60
2023/06/07 08:53:15;;;;;;;11.53;10.47;;;23.30;99.90;;;;;;6310129;28;20248;-60
2023/06/07 08:56:19;;;;;;;12.47;10.43;;;23.60;99.90;;;;;;6314288;28;20254;-60
2023/06/07 08:59:24;;;;;;;12.37;11.10;;;23.90;99.90;;;;;;6316280;28;20321;-59
2023/06/07 09:02:27;;;;;;;12.20;11.00;;;24.20;99.90;;;;;;6327547;28;20226;-58
2023/06/07 09:05:32;;;;;;;11.90;10.80;;;24.40;99.90;;;;;;6302717;28;20223;-59
2023/06/07 09:08:35;;;;;;;13.57;12.27;;;24.60;99.90;;;;;;6302947;28;20313;-59
2023/06/07 09:11:39;;;;;;;12.97;11.77;;;24.70;99.90;;;;;;6302816;28;20242;-59
2023/06/07 09:14:42;;;;;;;13.07;11.87;;;24.70;99.90;;;;;;6302723;28;20237;-59
2023/06/07 09:17:53;;;;;;;11.20;10.27;;;24.70;99.70;;;;;;6302426;28;20568;-60
2023/06/07 09:20:58;;;;;;;12.40;11.20;;;24.80;99.70;;;;;;6314498;28;20662;-60
2023/06/07 09:24:01;;;;;;;12.47;11.33;;;24.60;99.50;;;;;;6323961;28;20656;-61
2023/06/07 09:27:06;;;;;;;11.80;10.77;;;24.80;99.60;;;;;;6300234;28;20207;-60
2023/06/07 09:30:10;;;;;;;13.00;11.87;;;25.00;99.20;;;;;;6312238;28;20289;-61
2023/06/07 09:33:28;;;;;;;10.37;9.47;;;25.50;98.40;;;;;;6310174;28;20190;-61
2023/06/07 09:36:33;;;;;;;13.47;12.10;;;26.10;98.10;;;;;;6327951;28;20310;-61
2023/06/07 09:39:37;;;;;;;12.50;11.40;;;26.80;96.40;;;;;;6327937;28;20236;-61
2023/06/07 09:42:41;;;;;;;11.10;10.20;;;27.20;95.10;;;;;;6302015;28;20218;-61
2023/06/07 09:45:54;;;;;;;11.03;9.90;;;27.10;94.60;;;;;;6302082;28;20229;-62
2023/06/07 09:48:57;;;;;;;13.40;11.63;;;27.00;94.60;;;;;;6302557;28;20283;-60
2023/06/07 09:52:02;;;;;;;9.87;9.00;;;26.90;94.40;;;;;;6303424;28;20518;-60
2023/06/07 09:55:07;;;;;;;9.23;8.63;;;26.90;93.70;;;;;;6306236;28;20226;-61
2023/06/07 09:58:22;;;;;;;11.13;10.13;;;27.30;92.70;;;;;;6303809;28;20267;-60
2023/06/07 10:01:33;;;;;;;11.20;9.70;;;27.50;92.50;;;;;;6305720;28;20230;-61
2023/06/07 10:04:36;;;;;;;9.00;8.30;;;27.60;91.80;;;;;;6307080;28;20219;-61
2023/06/07 10:07:43;;;;;;;9.30;8.00;;;28.20;90.80;;;;;;6316331;28;20217;-61
2023/06/07 10:10:51;;;;;;;10.60;9.60;;;28.30;90.70;;;;;;6326521;28;20570;-61
2023/06/07 10:13:56;;;;;;;10.00;9.20;;;28.60;89.20;;;;;;6325308;28;20225;-61
2023/06/07 10:17:04;;;;;;;9.83;8.90;;;28.40;88.00;;;;;;6317391;28;20236;-61
2023/06/07 10:20:12;;;;;;;12.43;11.40;;;28.50;86.60;;;;;;6326931;28;20294;-61
2023/06/07 10:23:24;;;;;;;10.87;10.00;;;27.80;86.90;;;;;;6307698;28;20716;-62
2023/06/07 10:26:35;;;;;;;12.00;11.00;;;27.70;87.10;;;;;;6301219;28;20234;-60
2023/06/07 10:29:43;;;;;;;10.90;10.00;;;27.80;86.90;;;;;;6309751;28;20576;-61
2023/06/07 10:32:47;;;;;;;10.13;9.33;;;28.00;85.90;;;;;;6310731;28;20229;-61
2023/06/07 10:35:51;;;;;;;10.00;9.03;;;28.20;85.00;;;;;;6314127;28;20306;-60
2023/06/07 10:38:57;;;;;;;10.70;9.90;;;28.20;84.40;;;;;;6320300;28;20213;-60
2023/06/07 10:42:01;;;;;;;10.40;9.60;;;28.00;84.10;;;;;;6322587;28;20217;-61
2023/06/07 10:45:05;;;;;;;9.80;9.00;;;27.90;86.10;;;;;;6326486;27;20245;-61
2023/06/07 10:48:34;;;;;;;12.07;11.13;;;28.00;86.30;;;;;;6304720;28;20199;-61
2023/06/07 10:52:02;;;;;;;9.00;8.20;;;27.90;84.80;;;;;;6298118;28;20291;-61
2023/06/07 10:55:26;;;;;;;9.27;8.47;;;28.10;85.50;;;;;;6300562;28;20218;-62
2023/06/07 10:58:32;;;;;;;10.93;9.57;;;28.20;86.80;;;;;;6300598;28;20314;-61
2023/06/07 11:01:35;;;;;;;10.57;9.43;;;28.40;85.30;;;;;;6300383;28;20559;-61
2023/06/07 11:04:52;;;;;;;12.57;8.57;;;28.30;84.70;;;;;;6311478;28;20226;-61
2023/06/07 11:08:23;;;;;;;8.67;7.97;;;28.00;85.00;;;;;;6325015;28;20543;-61
2023/06/07 11:11:52;;;;;;;8.47;7.40;;;27.90;85.70;;;;;;6327765;28;20240;-61
2023/06/07 11:15:20;;;;;;;8.60;8.00;;;27.70;85.10;;;;;;6324402;28;20231;-61
2023/06/07 11:18:44;;;;;;;9.10;8.30;;;27.50;86.40;;;;;;6325086;28;20236;-61
2023/06/07 11:22:06;;;;;;;9.80;9.00;;;27.20;87.30;;;;;;6326335;28;20226;-61
2023/06/07 11:25:14;;;;;;;8.77;7.90;;;27.10;87.00;;;;;;6324984;28;20562;-61
2023/06/07 11:28:22;;;;;;;8.33;7.70;;;27.30;87.30;;;;;;6324706;28;20221;-61
2023/06/07 11:31:25;;;;;;;8.30;7.70;;;27.30;88.30;;;;;;6324827;28;20233;-61
2023/06/07 11:34:30;;;;;;;9.67;8.90;;;27.00;88.00;;;;;;6324713;28;20257;-61
2023/06/07 11:37:33;;;;;;;8.67;7.83;;;26.90;89.10;;;;;;6315143;28;20248;-61
2023/06/07 11:40:36;;;;;;;8.13;7.53;;;26.80;90.10;;;;;;6324293;28;20237;-61
2023/06/07 11:43:41;;;;;;;8.13;7.40;;;26.80;90.70;;;;;;6324226;28;20222;-62
2023/06/07 11:46:46;;;;;;;8.83;8.03;;;26.60;90.20;;;;;;6324661;28;20229;-64
2023/06/07 11:49:49;;;;;;;8.30;7.47;;;26.50;90.60;;;;;;6299531;28;20371;-60
2023/06/07 11:52:54;;;;;;;8.87;7.97;;;26.40;90.10;;;;;;6299252;28;20248;-62
2023/06/07 11:55:57;;;;;;;8.70;7.90;;;26.30;90.50;;;;;;6299041;28;20304;-64
2023/06/07 11:59:01;;;;;;;8.60;7.90;;;26.20;90.60;;;;;;6298905;28;20352;-62
2023/06/07 12:02:05;;;;;;;8.63;7.83;;;26.50;90.40;;;;;;6299312;28;20233;-63
2023/06/07 12:05:10;;;;;;;8.23;7.17;;;27.00;90.00;;;;;;6306208;28;20221;-63
2023/06/07 12:08:16;;;;;;;7.73;7.13;;;27.10;87.00;;;;;;6324170;28;20304;-60
2023/06/07 12:11:23;;;;;;;7.40;6.70;;;26.80;88.30;;;;;;6324112;28;20320;-60
2023/06/07 12:14:35;;;;;;;7.70;7.10;;;26.90;87.60;;;;;;6324007;28;20290;-60
2023/06/07 12:17:39;;;;;;;7.53;7.03;;;26.90;87.20;;;;;;6323805;28;20680;-60
2023/06/07 12:20:43;;;;;;;6.67;6.07;;;26.90;86.60;;;;;;6323714;28;20229;-60
2023/06/07 12:23:48;;;;;;;6.83;6.23;;;26.90;86.80;;;;;;6323091;28;20329;-63
2023/06/07 12:26:56;;;;;;;7.80;7.10;;;26.90;86.90;;;;;;6325144;28;20229;-63
2023/06/07 12:30:01;;;;;;;6.70;6.10;;;26.70;86.90;;;;;;6325597;28;20238;-62
2023/06/07 12:33:06;;;;;;;7.93;7.33;;;26.60;87.90;;;;;;6316611;28;20552;-63
2023/06/07 12:36:10;;;;;;;7.87;6.53;;;26.60;87.20;;;;;;6310442;28;20302;-63
2023/06/07 12:39:14;;;;;;;6.73;6.23;;;26.30;87.80;;;;;;6310965;28;20214;-63
2023/06/07 12:42:17;;;;;;;7.83;7.20;;;26.20;88.50;;;;;;6314601;28;20217;-59
2023/06/07 12:45:22;;;;;;;7.43;6.83;;;26.00;88.80;;;;;;6317182;28;20260;-61
2023/06/07 12:48:25;;;;;;;9.43;6.90;;;25.80;89.90;;;;;;6305040;28;20656;-60
2023/06/07 12:51:29;;;;;;;6.90;6.40;;;25.80;90.10;;;;;;6316017;28;20238;-60
2023/06/07 12:54:32;;;;;;;5.60;5.10;;;25.80;92.00;;;;;;6328413;28;20716;-60
2023/06/07 12:57:35;;;;;;;6.23;5.70;;;25.40;93.50;;;;;;6323595;28;20226;-60
2023/06/07 13:00:40;;;;;;;5.80;3.87;;;25.00;94.30;;;;;;6315181;28;20681;-61
2023/06/07 13:03:43;;;;;;;3.90;3.57;;;24.50;93.60;;;;;;6317399;28;20305;-61
2023/06/07 13:06:47;;;;;;;3.50;3.20;;;23.90;93.20;;;;;;6323777;28;20773;-60
2023/06/07 13:09:50;;;;;;;3.13;2.77;;;23.60;94.20;;;;;;6315309;28;20241;-60
2023/06/07 13:12:53;;;;;;;2.67;2.20;;;23.40;94.10;;;;;;6302645;28;20227;-60
2023/06/07 13:16:01;;;;;;;2.83;2.60;;;23.30;93.90;;;;;;6316760;28;20219;-60
2023/06/07 13:19:05;;;;;;;4.47;4.10;;;23.30;94.80;;;;;;6302799;28;20230;-60
2023/06/07 13:22:08;;;;;;;3.63;2.67;;;23.30;95.20;;;;;;6312598;28;20281;-60
2023/06/07 13:25:11;;;;;;;4.77;2.83;;;23.40;95.30;;;;;;6318540;28;20230;-61
2023/06/07 13:28:14;;;;;;;2.60;2.07;;;23.50;95.40;;;;;;6302982;28;20272;-60
2023/06/07 13:31:25;;;;;;;4.53;2.97;;;23.70;95.40;;;;;;6312049;28;20235;-61
2023/06/07 13:34:28;;;;;;;3.53;3.10;;;23.80;96.10;;;;;;6310032;28;20219;-61
2023/06/07 13:37:31;;;;;;;4.50;4.10;;;23.90;97.70;;;;;;6311158;28;20215;-62
2023/06/07 13:40:34;;;;;;;5.73;3.53;;;23.90;98.30;;;;;;6306188;28;20690;-62
2023/06/07 13:43:38;;;;;;;4.47;3.80;;;24.00;97.90;;;;;;6304203;28;20528;-62
2023/06/07 13:46:46;;;;;;;3.23;2.93;;;24.10;98.00;;;;;;6315853;28;20213;-62
2023/06/07 13:49:52;;;;;;;4.00;3.30;;;23.90;97.40;;;;;;6348020;28;20238;-62
2023/06/07 13:52:56;;;;;;;2.77;2.17;;;23.80;97.40;;;;;;6326553;28;20682;-61
2023/06/07 13:55:59;;;;;;;1.90;1.80;;;23.70;94.60;;;;;;6320720;28;20311;-62
2023/06/07 13:59:05;;;;;;;2.00;1.90;;;23.50;95.00;;;;;;6301561;28;20763;-61
2023/06/07 14:02:11;;;;;;;2.70;2.50;;;23.50;94.30;;;;;;6313191;28;20568;-61
2023/06/07 14:05:15;;;;;;;3.33;2.70;;;23.90;95.60;;;;;;6301718;28;20280;-61
2023/06/07 14:08:19;;;;;;;4.00;3.70;;;24.20;96.00;;;;;;6313135;28;20252;-61
2023/06/07 14:11:23;;;;;;;4.83;4.53;;;24.40;96.60;;;;;;6301613;28;20560;-61
2023/06/07 14:14:27;;;;;;;5.30;4.40;;;24.70;96.30;;;;;;6301245;28;20230;-60
2023/06/07 14:17:31;;;;;;;5.20;4.80;;;24.80;97.10;;;;;;6300768;28;20279;-60
2023/06/07 14:20:34;;;;;;;5.10;4.70;;;25.10;96.90;;;;;;6310350;28;20316;-60
2023/06/07 14:23:38;;;;;;;5.67;5.17;;;25.50;97.00;;;;;;6323993;28;20231;-61
2023/06/07 14:26:41;;;;;;;5.80;5.30;;;25.70;96.30;;;;;;6315308;28;20587;-61
2023/06/07 14:29:44;;;;;;;5.53;5.13;;;25.80;96.20;;;;;;6308622;28;20218;-61
2023/06/07 14:32:48;;;;;;;5.13;4.73;;;25.80;96.50;;;;;;6320245;28;20225;-61
2023/06/07 14:35:52;;;;;;;6.20;5.70;;;26.10;96.10;;;;;;6316173;28;20230;-61
2023/06/07 14:38:56;;;;;;;5.00;4.63;;;26.00;95.50;;;;;;6300727;28;20234;-61
2023/06/07 14:41:59;;;;;;;5.03;4.73;;;25.70;95.40;;;;;;6310078;28;20565;-61
2023/06/07 14:45:03;;;;;;;5.63;5.23;;;25.40;96.20;;;;;;6310629;28;20234;-60
2023/06/07 14:48:08;;;;;;;5.60;5.13;;;25.40;96.40;;;;;;6325682;28;20638;-61
2023/06/07 14:51:11;;;;;;;5.30;4.80;;;25.30;96.70;;;;;;6326282;28;20271;-61
2023/06/07 14:54:15;;;;;;;4.73;4.43;;;25.40;96.60;;;;;;6325167;28;20212;-62
2023/06/07 14:57:18;;;;;;;4.67;4.20;;;25.50;95.30;;;;;;6325841;28;20201;-62
2023/06/07 15:00:22;;;;;;;4.30;4.00;;;25.20;95.10;;;;;;6325762;28;20739;-61
2023/06/07 15:03:26;;;;;;;4.20;3.90;;;25.00;95.30;;;;;;6339724;28;20218;-61
2023/06/07 15:06:30;;;;;;;4.33;4.03;;;25.00;95.10;;;;;;6331778;28;20226;-62
2023/06/07 15:09:34;;;;;;;4.70;3.90;;;24.90;95.50;;;;;;6306955;28;20253;-62
2023/06/07 15:12:38;;;;;;;3.53;3.23;;;24.80;95.40;;;;;;6305109;28;20230;-62
2023/06/07 15:15:41;;;;;;;3.63;3.33;;;24.50;95.30;;;;;;6300376;28;20427;-62
2023/06/07 15:18:45;;;;;;;3.40;3.10;;;24.60;95.60;;;;;;6300606;28;20231;-62
2023/06/07 15:21:49;;;;;;;3.10;2.90;;;24.70;94.90;;;;;;6299947;28;20237;-63
2023/06/07 15:24:53;;;;;;;2.97;2.40;;;24.90;94.70;;;;;;6299737;28;20257;-62
2023/06/07 15:27:56;;;;;;;3.00;2.80;;;24.90;93.70;;;;;;6299700;28;20349;-62
2023/06/07 15:30:59;;;;;;;3.20;2.90;;;24.90;94.00;;;;;;6299749;28;20252;-63
2023/06/07 15:34:03;;;;;;;3.60;2.83;;;25.00;93.70;;;;;;6299594;28;20789;-63
2023/06/07 15:37:09;;;;;;;3.13;2.87;;;25.10;93.80;;;;;;6322056;28;20240;-63
2023/06/07 15:40:12;;;;;;;3.20;2.90;;;25.00;94.00;;;;;;6324389;28;20243;-62
2023/06/07 15:43:15;;;;;;;3.47;2.60;;;25.00;94.30;;;;;;6324825;28;20228;-63
2023/06/07 15:46:19;;;;;;;2.93;2.73;;;25.00;94.40;;;;;;6324274;28;20580;-62
2023/06/07 15:49:23;;;;;;;2.80;2.60;;;25.00;94.30;;;;;;6315323;28;20222;-63
2023/06/07 15:52:27;;;;;;;3.13;2.93;;;25.10;94.00;;;;;;6295684;28;20570;-62
2023/06/07 15:55:30;;;;;;;2.80;2.60;;;25.30;93.90;;;;;;6310341;28;20229;-62